createdAt,value
2022-10-18T00:00:17.925Z,102357.09
2022-10-18T00:02:44.588Z,102365.81
2022-10-18T00:05:11.389Z,102364.19
2022-10-18T00:07:38.033Z,102364.38
2022-10-18T00:10:05.844Z,102354.16
2022-10-18T00:12:34.694Z,102359.25
2022-10-18T00:15:01.796Z,102369.78
2022-10-18T00:17:28.601Z,102369.34
2022-10-18T00:19:55.338Z,102375.25
2022-10-18T00:22:22.204Z,102372.44
2022-10-18T00:24:52.849Z,102361.59
2022-10-18T00:27:19.513Z,102349.72
2022-10-18T00:29:46.187Z,102352.19
2022-10-18T00:32:12.797Z,102350.06
2022-10-18T00:34:40.234Z,102353.69
2022-10-18T00:37:06.840Z,102358.69
2022-10-18T00:39:33.630Z,102362.81
2022-10-18T00:42:00.178Z,102347.97
2022-10-18T00:44:26.610Z,102372.44
2022-10-18T00:46:58.471Z,102371.44
2022-10-18T00:49:34.183Z,102370.56
2022-10-18T00:52:06.631Z,102371.25
2022-10-18T00:54:35.881Z,102372.69
2022-10-18T00:57:02.672Z,102374.97
2022-10-18T00:59:29.736Z,102373.34
2022-10-18T01:01:56.813Z,102378.59
2022-10-18T01:04:23.949Z,102372.97
2022-10-18T01:07:25.954Z,102364.44
2022-10-18T01:09:58.706Z,102372.63
2022-10-18T01:12:46.684Z,102387.78
2022-10-18T01:15:18.342Z,102383.97
2022-10-18T01:17:52.227Z,102384.63
2022-10-18T01:20:37.270Z,102381.81
2022-10-18T01:23:11.588Z,102382.00
2022-10-18T01:26:17.479Z,102374.09
2022-10-18T01:29:32.415Z,102367.34
2022-10-18T01:32:03.828Z,102377.06
2022-10-18T01:34:34.695Z,102376.63
2022-10-18T01:37:04.902Z,102377.31
2022-10-18T01:39:41.465Z,102382.88
2022-10-18T01:42:11.562Z,102388.78
2022-10-18T01:44:40.900Z,102375.50
2022-10-18T01:47:10.817Z,102379.63
2022-10-18T01:49:37.401Z,102377.09
2022-10-18T01:52:04.500Z,102382.88
2022-10-18T01:54:36.609Z,102394.75
2022-10-18T01:57:22.309Z,102384.47
2022-10-18T02:00:05.569Z,102389.25
2022-10-18T02:02:51.173Z,102385.81
2022-10-18T02:05:31.847Z,102393.75
2022-10-18T02:08:22.883Z,102394.13
2022-10-18T02:10:55.692Z,102385.41
2022-10-18T02:13:25.656Z,102382.22
2022-10-18T02:15:58.226Z,102392.13
2022-10-18T02:18:33.168Z,102388.84
2022-10-18T02:21:03.459Z,102393.44
2022-10-18T02:23:32.436Z,102394.06
2022-10-18T02:25:59.190Z,102389.63
2022-10-18T02:28:26.534Z,102393.53
2022-10-18T02:31:05.464Z,102387.97
2022-10-18T02:33:54.058Z,102395.19
2022-10-18T02:36:42.277Z,102394.03
2022-10-18T02:39:15.019Z,102399.13
2022-10-18T02:41:41.928Z,102402.19
2022-10-18T02:44:09.596Z,102396.28
2022-10-18T02:46:36.974Z,102399.13
2022-10-18T02:49:03.612Z,102401.75
2022-10-18T02:51:30.338Z,102391.38
2022-10-18T02:53:56.975Z,102397.66
2022-10-18T02:56:24.094Z,102406.47
2022-10-18T02:58:50.658Z,102394.66
2022-10-18T03:01:17.627Z,102401.22
2022-10-18T03:03:44.233Z,102405.31
2022-10-18T03:06:10.915Z,102410.75
2022-10-18T03:08:38.244Z,102409.41
2022-10-18T03:11:04.899Z,102391.03
2022-10-18T03:13:31.548Z,102397.94
2022-10-18T03:15:58.695Z,102398.94
2022-10-18T03:18:25.513Z,102399.75
2022-10-18T03:20:52.255Z,102410.06
2022-10-18T03:23:18.761Z,102403.78
2022-10-18T03:25:46.450Z,102413.69
2022-10-18T03:28:13.292Z,102411.41
2022-10-18T03:30:39.880Z,102402.38
2022-10-18T03:33:07.112Z,102408.47
2022-10-18T03:35:34.047Z,102408.81
2022-10-18T03:38:00.705Z,102408.81
2022-10-18T03:40:27.354Z,102390.06
2022-10-18T03:42:53.886Z,102402.63
2022-10-18T03:45:20.612Z,102402.13
2022-10-18T03:47:47.351Z,102393.13
2022-10-18T03:50:15.265Z,102391.84
2022-10-18T03:52:41.923Z,102401.72
2022-10-18T03:55:08.809Z,102394.56
2022-10-18T03:57:35.477Z,102395.91
2022-10-18T04:00:02.945Z,102406.59
2022-10-18T04:02:38.835Z,102397.06
2022-10-18T04:05:07.746Z,102401.84
2022-10-18T04:10:03.757Z,102411.91
2022-10-18T04:12:30.609Z,102404.22
2022-10-18T04:14:57.298Z,102401.28
2022-10-18T04:17:24.272Z,102397.69
2022-10-18T04:19:50.926Z,102401.66
2022-10-18T04:22:17.563Z,102403.63
2022-10-18T04:24:44.304Z,102399.38
2022-10-18T04:27:10.942Z,102404.16
2022-10-18T04:29:37.595Z,102396.97
2022-10-18T04:32:05.289Z,102409.91
2022-10-18T04:34:32.079Z,102408.25
2022-10-18T04:36:58.937Z,102408.63
2022-10-18T04:39:25.524Z,102412.91
2022-10-18T04:41:52.076Z,102409.47
2022-10-18T04:44:18.743Z,102414.56
2022-10-18T04:46:45.286Z,102406.84
2022-10-18T04:49:12.152Z,102405.69
2022-10-18T04:51:38.681Z,102407.19
2022-10-18T04:54:05.642Z,102414.91
2022-10-18T04:56:33.093Z,102418.22
2022-10-18T04:58:59.957Z,102403.72
2022-10-18T05:01:26.586Z,102415.25
2022-10-18T05:03:54.347Z,102420.84
2022-10-18T05:06:22.695Z,102429.72
2022-10-18T05:08:49.874Z,102426.75
2022-10-18T05:11:16.610Z,102435.31
2022-10-18T05:13:45.966Z,102429.72
2022-10-18T05:16:16.054Z,102424.94
2022-10-18T05:18:43.320Z,102437.94
2022-10-18T05:21:10.669Z,102445.81
2022-10-18T05:23:37.223Z,102441.88
2022-10-18T05:26:07.374Z,102434.66
2022-10-18T05:28:39.582Z,102433.31
2022-10-18T05:31:09.433Z,102436.13
2022-10-18T05:33:36.496Z,102441.22
2022-10-18T05:36:03.966Z,102436.94
2022-10-18T05:38:31.147Z,102436.28
2022-10-18T05:40:59.067Z,102440.22
2022-10-18T05:43:28.999Z,102443.34
2022-10-18T05:45:56.257Z,102437.75
2022-10-18T05:48:22.899Z,102428.69
2022-10-18T05:50:49.822Z,102440.56
2022-10-18T05:53:35.858Z,102446.13
2022-10-18T05:56:03.490Z,102438.91
2022-10-18T05:58:30.049Z,102440.06
2022-10-18T06:01:01.082Z,102440.38
2022-10-18T06:03:28.367Z,102445.97
2022-10-18T06:06:01.406Z,102441.69
2022-10-18T06:08:28.255Z,102447.59
2022-10-18T06:10:55.066Z,102451.88
2022-10-18T06:13:22.367Z,102453.03
2022-10-18T06:15:49.255Z,102451.38
2022-10-18T06:18:16.001Z,102453.47
2022-10-18T06:20:42.809Z,102452.84
2022-10-18T06:23:09.448Z,102467.28
2022-10-18T06:25:35.962Z,102457.28
2022-10-18T06:28:07.770Z,102465.00
2022-10-18T06:30:37.046Z,102456.75
2022-10-18T06:33:04.003Z,102464.66
2022-10-18T06:35:30.597Z,102445.22
2022-10-18T06:37:57.600Z,102474.72
2022-10-18T06:40:24.494Z,102485.41
2022-10-18T06:43:00.231Z,102492.50
2022-10-18T06:45:33.393Z,102494.63
2022-10-18T06:48:00.053Z,102490.50
2022-10-18T06:50:26.681Z,102488.84
2022-10-18T06:52:53.193Z,102499.88
2022-10-18T06:55:19.785Z,102500.50
2022-10-18T06:57:46.581Z,102499.53
2022-10-18T07:00:14.039Z,102506.44
2022-10-18T07:02:41.333Z,102499.69
2022-10-18T07:05:09.231Z,102506.94
2022-10-18T07:07:36.141Z,102506.94
2022-10-18T07:10:04.383Z,102522.56
2022-10-18T07:12:32.085Z,102523.53
2022-10-18T07:14:58.707Z,102519.94
2022-10-18T07:17:26.027Z,102526.84
2022-10-18T07:19:52.699Z,102517.13
2022-10-18T07:22:19.324Z,102528.97
2022-10-18T07:24:45.962Z,102547.06
2022-10-18T07:27:12.776Z,102540.50
2022-10-18T07:29:39.666Z,102543.44
2022-10-18T07:32:06.396Z,102554.28
2022-10-18T07:34:33.120Z,102555.94
2022-10-18T07:37:02.139Z,102570.88
2022-10-18T07:39:28.744Z,102570.72
2022-10-18T07:41:55.334Z,102559.88
2022-10-18T07:44:22.101Z,102574.16
2022-10-18T07:46:48.718Z,102571.03
2022-10-18T07:49:15.415Z,102576.13
2022-10-18T07:51:42.024Z,102584.06
2022-10-18T07:54:08.880Z,102603.28
2022-10-18T07:56:35.557Z,102593.78
2022-10-18T07:59:02.136Z,102600.66
2022-10-18T08:01:28.885Z,102602.00
2022-10-18T08:03:55.525Z,102598.41
2022-10-18T08:06:23.325Z,102611.72
2022-10-18T08:08:50.517Z,102599.38
2022-10-18T08:11:20.481Z,102609.72
2022-10-18T08:13:47.302Z,102617.84
2022-10-18T08:16:17.633Z,102607.31
2022-10-18T08:18:44.279Z,102615.69
2022-10-18T08:21:12.355Z,102617.84
2022-10-18T08:23:39.966Z,102619.78
2022-10-18T08:26:15.278Z,102611.06
2022-10-18T08:28:49.084Z,102622.75
2022-10-18T08:31:25.565Z,102623.41
2022-10-18T08:33:52.449Z,102622.91
2022-10-18T08:36:19.788Z,102629.66
2022-10-18T08:38:46.557Z,102633.44
2022-10-18T08:41:32.986Z,102638.72
2022-10-18T08:44:24.717Z,102633.59
2022-10-18T08:46:55.837Z,102634.56
2022-10-18T08:49:28.898Z,102636.72
2022-10-18T08:51:57.582Z,102645.28
2022-10-18T08:54:30.651Z,102638.88
2022-10-18T08:57:04.370Z,102651.50
2022-10-18T08:59:41.451Z,102638.47
2022-10-18T09:02:30.856Z,102636.84
2022-10-18T09:05:13.928Z,102637.66
2022-10-18T09:08:09.626Z,102652.78
2022-10-18T09:10:53.643Z,102635.16
2022-10-18T09:13:36.271Z,102640.88
2022-10-18T09:16:06.034Z,102649.09
2022-10-18T09:18:41.869Z,102656.19
2022-10-18T09:21:11.837Z,102662.94
2022-10-18T09:23:51.407Z,102646.09
2022-10-18T09:26:23.462Z,102649.22
2022-10-18T09:29:11.009Z,102650.38
2022-10-18T09:31:50.527Z,102636.22
2022-10-18T09:34:30.277Z,102649.00
2022-10-18T09:36:57.267Z,102643.28
2022-10-18T09:39:33.527Z,102635.91
2022-10-18T09:42:13.055Z,102652.63
2022-10-18T09:44:44.342Z,102653.88
2022-10-18T09:47:26.450Z,102648.13
2022-10-18T09:50:02.334Z,102648.13
2022-10-18T09:52:42.659Z,102647.00
2022-10-18T09:55:30.778Z,102642.31
2022-10-18T09:58:01.897Z,102654.44
2022-10-18T10:00:34.445Z,102642.72
2022-10-18T10:03:02.197Z,102654.28
2022-10-18T10:05:28.845Z,102653.28
2022-10-18T10:08:00.057Z,102652.09
2022-10-18T10:10:28.782Z,102654.22
2022-10-18T10:13:15.920Z,102663.25
2022-10-18T10:15:52.299Z,102671.72
2022-10-18T10:18:21.146Z,102656.63
2022-10-18T10:20:52.174Z,102658.09
2022-10-18T10:23:21.745Z,102660.88
2022-10-18T10:25:58.575Z,102655.16
2022-10-18T10:28:33.973Z,102658.91
2022-10-18T10:31:19.303Z,102676.50
2022-10-18T10:33:47.615Z,102673.69
2022-10-18T10:36:20.647Z,102676.59
2022-10-18T10:39:18.770Z,102686.09
2022-10-18T10:41:49.704Z,102686.53
2022-10-18T10:44:18.931Z,102692.94
2022-10-18T10:46:46.687Z,102688.72
2022-10-18T10:49:41.512Z,102681.78
2022-10-18T10:52:26.891Z,102688.25
2022-10-18T10:55:23.629Z,102687.00
2022-10-18T10:57:55.399Z,102686.56
2022-10-18T11:00:34.108Z,102682.94
2022-10-18T11:03:31.181Z,102687.09
2022-10-18T11:06:00.700Z,102693.84
2022-10-18T11:08:41.466Z,102710.78
2022-10-18T11:11:26.797Z,102702.06
2022-10-18T11:14:26.296Z,102691.47
2022-10-18T11:17:26.442Z,102687.22
2022-10-18T11:20:15.093Z,102699.41
2022-10-18T11:22:49.774Z,102697.97
2022-10-18T11:25:17.948Z,102691.06
2022-10-18T11:28:10.714Z,102689.13
2022-10-18T11:31:18.866Z,102689.22
2022-10-18T11:34:23.136Z,102687.94
2022-10-18T11:36:56.458Z,102686.94
2022-10-18T11:40:08.365Z,102677.00
2022-10-18T11:42:50.078Z,102687.13
2022-10-18T11:45:38.497Z,102690.69
2022-10-18T11:48:42.559Z,102687.59
2022-10-18T11:51:34.060Z,102687.59
2022-10-18T11:54:23.639Z,102687.50
2022-10-18T11:57:06.635Z,102686.22
2022-10-18T11:59:49.734Z,102684.22
2022-10-18T12:02:35.478Z,102683.56
2022-10-18T12:05:23.440Z,102672.53
2022-10-18T12:08:00.796Z,102677.38
2022-10-18T12:10:46.043Z,102669.63
2022-10-18T12:13:29.463Z,102671.69
2022-10-18T12:15:56.618Z,102651.81
2022-10-18T12:18:25.932Z,102659.50
2022-10-18T12:20:58.712Z,102645.94
2022-10-18T12:23:52.798Z,102659.94
2022-10-18T12:26:20.765Z,102643.63
2022-10-18T12:29:00.953Z,102657.63
2022-10-18T12:31:35.332Z,102652.38
2022-10-18T12:34:25.115Z,102646.44
2022-10-18T12:37:06.879Z,102652.03
2022-10-18T12:39:43.924Z,102658.44
2022-10-18T12:42:18.767Z,102654.28
2022-10-18T12:44:46.565Z,102646.81
2022-10-18T12:47:23.690Z,102650.50
2022-10-18T12:50:03.367Z,102646.97
2022-10-18T12:52:34.561Z,102656.41
2022-10-18T12:55:03.883Z,102654.41
2022-10-18T12:57:58.323Z,102648.38
2022-10-18T13:00:31.120Z,102648.00
2022-10-18T13:03:12.419Z,102649.25
2022-10-18T13:05:53.937Z,102641.00
2022-10-18T13:08:27.217Z,102635.28
2022-10-18T13:11:12.035Z,102635.16
2022-10-18T13:14:09.693Z,102637.88
2022-10-18T13:16:54.222Z,102630.34
2022-10-18T13:19:30.422Z,102626.63
2022-10-18T13:22:09.295Z,102622.94
2022-10-18T13:25:07.320Z,102619.75
2022-10-18T13:27:52.963Z,102621.47
2022-10-18T13:30:31.933Z,102631.13
2022-10-18T13:33:34.942Z,102628.84
2022-10-18T13:36:22.483Z,102637.53
2022-10-18T13:39:03.769Z,102641.13
2022-10-18T13:41:35.393Z,102628.69
2022-10-18T13:44:40.363Z,102628.19
2022-10-18T13:47:07.284Z,102635.00
2022-10-18T13:49:40.360Z,102637.88
2022-10-18T13:52:25.267Z,102639.47
2022-10-18T13:55:29.792Z,102645.63
2022-10-18T13:58:18.977Z,102645.16
2022-10-18T14:00:58.691Z,102638.41
2022-10-18T14:03:56.446Z,102643.91
2022-10-18T14:06:35.230Z,102632.78
2022-10-18T14:09:25.655Z,102624.97
2022-10-18T14:12:08.791Z,102625.38
2022-10-18T14:14:38.519Z,102636.44
2022-10-18T14:17:16.837Z,102639.13
2022-10-18T14:20:14.534Z,102638.25
2022-10-18T14:23:15.547Z,102646.69
2022-10-18T14:25:42.642Z,102634.97
2022-10-18T14:28:13.615Z,102625.38
2022-10-18T14:30:58.962Z,102637.81
2022-10-18T14:33:35.209Z,102630.13
2022-10-18T14:36:11.640Z,102636.69
2022-10-18T14:39:01.032Z,102638.59
2022-10-18T14:41:29.131Z,102634.50
2022-10-18T14:44:14.380Z,102625.66
2022-10-18T14:46:49.073Z,102615.69
2022-10-18T14:49:16.836Z,102637.34
2022-10-18T14:51:46.370Z,102622.19
2022-10-18T14:54:32.472Z,102620.91
2022-10-18T14:57:01.181Z,102620.63
2022-10-18T14:59:30.865Z,102629.03
2022-10-18T15:02:12.706Z,102638.41
2022-10-18T15:04:39.418Z,102627.31
2022-10-18T15:07:13.459Z,102622.84
2022-10-18T15:09:40.440Z,102631.97
2022-10-18T15:12:08.077Z,102639.09
2022-10-18T15:14:35.543Z,102617.13
2022-10-18T15:17:08.424Z,102622.59
2022-10-18T15:19:40.406Z,102623.31
2022-10-18T15:25:14.981Z,102630.97
2022-10-18T15:28:03.279Z,102632.16
2022-10-18T15:30:40.960Z,102628.88
2022-10-18T15:33:22.592Z,102630.22
2022-10-18T15:35:51.014Z,102637.88
2022-10-18T15:38:26.742Z,102636.78
2022-10-18T15:40:54.515Z,102633.53
2022-10-18T15:43:49.517Z,102631.41
2022-10-18T15:46:32.058Z,102626.41
2022-10-18T15:49:24.675Z,102623.75
2022-10-18T15:52:33.793Z,102624.66
2022-10-18T15:55:22.143Z,102624.00
2022-10-18T15:57:49.308Z,102624.94
2022-10-18T16:00:20.165Z,102632.75
2022-10-18T16:02:46.983Z,102630.66
2022-10-18T16:05:18.628Z,102625.69
2022-10-18T16:07:45.364Z,102625.72
2022-10-18T16:10:13.833Z,102630.22
2022-10-18T16:12:40.945Z,102633.97
2022-10-18T16:15:08.497Z,102626.78
2022-10-18T16:17:36.024Z,102633.66
2022-10-18T16:20:03.871Z,102634.72
2022-10-18T16:22:32.281Z,102630.47
2022-10-18T16:25:01.409Z,102643.25
2022-10-18T16:27:27.996Z,102635.38
2022-10-18T16:29:54.658Z,102647.50
2022-10-18T16:32:21.481Z,102638.25
2022-10-18T16:34:48.169Z,102648.53
2022-10-18T16:37:14.757Z,102654.00
2022-10-18T16:39:41.311Z,102655.50
2022-10-18T16:42:07.955Z,102662.59
2022-10-18T16:44:34.943Z,102663.97
2022-10-18T16:47:01.700Z,102666.78
2022-10-18T16:49:28.695Z,102655.97
2022-10-18T16:51:55.393Z,102672.13
2022-10-18T16:54:22.880Z,102670.78
2022-10-18T16:56:50.276Z,102672.94
2022-10-18T16:59:28.947Z,102673.28
2022-10-18T17:01:55.860Z,102675.22
2022-10-18T17:04:22.941Z,102686.88
2022-10-18T17:06:58.339Z,102683.91
2022-10-18T17:09:25.097Z,102688.19
2022-10-18T17:11:51.889Z,102688.66
2022-10-18T17:14:18.615Z,102687.00
2022-10-18T17:16:47.030Z,102681.72
2022-10-18T17:19:17.390Z,102684.06
2022-10-18T17:21:43.927Z,102684.53
2022-10-18T17:24:11.228Z,102688.13
2022-10-18T17:26:37.848Z,102694.34
2022-10-18T17:29:08.203Z,102689.53
2022-10-18T17:31:35.803Z,102695.91
2022-10-18T17:34:02.795Z,102706.41
2022-10-18T17:36:31.428Z,102710.50
2022-10-18T17:38:58.972Z,102710.59
2022-10-18T17:41:26.144Z,102718.25
2022-10-18T17:43:52.739Z,102716.00
2022-10-18T17:46:20.201Z,102711.97
2022-10-18T17:48:47.052Z,102724.06
2022-10-18T17:51:16.314Z,102721.22
2022-10-18T17:53:43.356Z,102717.69
2022-10-18T17:56:10.983Z,102727.09
2022-10-18T17:58:37.729Z,102711.78
2022-10-18T18:01:11.645Z,102727.59
2022-10-18T18:03:38.596Z,102738.50
2022-10-18T18:06:15.582Z,102737.06
2022-10-18T18:08:42.256Z,102718.31
2022-10-18T18:11:09.077Z,102740.22
2022-10-18T18:13:35.644Z,102738.13
2022-10-18T18:16:24.418Z,102746.69
2022-10-18T18:18:53.781Z,102749.22
2022-10-18T18:21:21.286Z,102740.44
2022-10-18T18:23:48.942Z,102738.25
2022-10-18T18:26:16.335Z,102733.31
2022-10-18T18:28:43.276Z,102735.25
2022-10-18T18:31:12.453Z,102730.69
2022-10-18T18:33:39.086Z,102734.13
2022-10-18T18:36:06.956Z,102732.19
2022-10-18T18:38:35.270Z,102723.78
2022-10-18T18:41:03.890Z,102730.69
2022-10-18T18:43:30.674Z,102732.78
2022-10-18T18:45:57.567Z,102738.47
2022-10-18T18:48:26.108Z,102723.06
2022-10-18T18:50:53.033Z,102740.91
2022-10-18T18:53:20.151Z,102732.13
2022-10-18T18:55:47.715Z,102736.53
2022-10-18T18:58:14.567Z,102739.00
2022-10-18T19:00:44.464Z,102736.25
2022-10-18T19:03:12.324Z,102736.25
2022-10-18T19:05:39.083Z,102732.50
2022-10-18T19:08:06.268Z,102736.25
2022-10-18T19:10:33.102Z,102736.41
2022-10-18T19:12:59.869Z,102728.31
2022-10-18T19:15:26.571Z,102729.19
2022-10-18T19:17:53.114Z,102733.03
2022-10-18T19:20:19.856Z,102738.53
2022-10-18T19:22:46.455Z,102730.13
2022-10-18T19:25:13.569Z,102741.97
2022-10-18T19:27:40.168Z,102740.47
2022-10-18T19:30:09.624Z,102737.03
2022-10-18T19:32:36.337Z,102726.28
2022-10-18T19:35:03.875Z,102739.25
2022-10-18T19:37:31.023Z,102729.78
2022-10-18T19:39:59.419Z,102730.34
2022-10-18T19:42:31.685Z,102743.84
2022-10-18T19:45:00.925Z,102729.81
2022-10-18T19:47:27.501Z,102739.75
2022-10-18T19:49:54.098Z,102748.72
2022-10-18T19:52:20.730Z,102745.66
2022-10-18T19:54:51.155Z,102744.53
2022-10-18T19:57:17.775Z,102738.91
2022-10-18T19:59:44.626Z,102733.97
2022-10-18T20:02:17.424Z,102737.69
2022-10-18T20:04:46.724Z,102751.34
2022-10-18T20:07:13.447Z,102745.69
2022-10-18T20:09:40.392Z,102745.44
2022-10-18T20:12:07.154Z,102720.66
2022-10-18T20:14:34.021Z,102735.66
2022-10-18T20:17:01.276Z,102739.50
2022-10-18T20:19:34.227Z,102725.47
2022-10-18T20:22:01.098Z,102736.78
2022-10-18T20:24:30.449Z,102722.31
2022-10-18T20:26:57.110Z,102721.34
2022-10-18T20:29:25.375Z,102729.22
2022-10-18T20:31:55.485Z,102733.63
2022-10-18T20:34:25.893Z,102735.66
2022-10-18T20:36:56.012Z,102723.41
2022-10-18T20:39:22.870Z,102738.16
2022-10-18T20:41:50.073Z,102736.78
2022-10-18T20:44:19.316Z,102738.66
2022-10-18T20:46:47.045Z,102741.09
2022-10-18T20:49:15.918Z,102729.56
2022-10-18T20:51:42.869Z,102733.97
2022-10-18T20:54:10.000Z,102714.25
2022-10-18T20:56:38.645Z,102726.34
2022-10-18T20:59:09.351Z,102724.56
2022-10-18T21:01:37.770Z,102721.94
2022-10-18T21:04:06.945Z,102737.75
2022-10-18T21:06:36.725Z,102721.06
2022-10-18T21:09:10.759Z,102732.78
2022-10-18T21:11:40.870Z,102716.50
2022-10-18T21:14:12.510Z,102731.91
2022-10-18T21:16:40.699Z,102724.63
2022-10-18T21:19:11.667Z,102716.41
2022-10-18T21:21:38.979Z,102724.97
2022-10-18T21:24:07.867Z,102715.81
2022-10-18T21:26:35.726Z,102706.72
2022-10-18T21:29:04.594Z,102720.59
2022-10-18T21:31:34.893Z,102715.63
2022-10-18T21:34:15.577Z,102728.44
2022-10-18T21:36:44.914Z,102723.75
2022-10-18T21:39:17.770Z,102726.47
2022-10-18T21:41:45.365Z,102712.78
2022-10-18T21:44:12.565Z,102720.06
2022-10-18T21:46:40.330Z,102708.72
2022-10-18T21:49:07.963Z,102729.09
2022-10-18T21:51:36.449Z,102710.63
2022-10-18T21:54:03.238Z,102698.47
2022-10-18T21:56:34.389Z,102720.38
2022-10-18T21:59:04.856Z,102711.56
2022-10-18T22:01:37.103Z,102712.22
2022-10-18T22:04:06.765Z,102718.28
2022-10-18T22:09:10.080Z,102719.03
2022-10-18T22:11:45.561Z,102715.25
2022-10-18T22:14:12.555Z,102704.53
2022-10-18T22:16:39.608Z,102708.94
2022-10-18T22:19:07.418Z,102720.84
2022-10-18T22:21:35.127Z,102720.06
2022-10-18T22:24:08.167Z,102732.97
2022-10-18T22:26:37.691Z,102731.31
2022-10-18T22:29:18.423Z,102734.28
2022-10-18T22:31:51.926Z,102728.00
2022-10-18T22:34:21.317Z,102722.66
2022-10-18T22:36:48.289Z,102728.19
2022-10-18T22:39:15.550Z,102730.56
2022-10-18T22:41:42.808Z,102725.69
2022-10-18T22:44:12.304Z,102729.03
2022-10-18T22:46:39.892Z,102731.16
2022-10-18T22:49:07.047Z,102721.59
2022-10-18T22:54:01.940Z,102725.03
2022-10-18T22:56:28.743Z,102713.13
2022-10-18T22:58:55.395Z,102714.78
2022-10-18T23:01:23.658Z,102723.19
2022-10-18T23:04:00.026Z,102716.97
2022-10-18T23:06:29.011Z,102723.84
2022-10-18T23:08:57.506Z,102716.53
2022-10-18T23:11:26.197Z,102719.22
2022-10-18T23:13:53.429Z,102720.31
2022-10-18T23:16:20.577Z,102723.88
2022-10-18T23:18:55.456Z,102718.66
2022-10-18T23:21:24.613Z,102708.22
2022-10-18T23:23:52.367Z,102717.84
2022-10-18T23:26:24.730Z,102721.66
2022-10-18T23:28:52.596Z,102712.31
2022-10-18T23:31:25.335Z,102714.25
2022-10-18T23:33:54.611Z,102709.28
2022-10-18T23:36:22.448Z,102710.63
2022-10-18T23:38:49.475Z,102716.38
2022-10-18T23:41:16.811Z,102712.84
2022-10-18T23:43:43.926Z,102709.28
2022-10-18T23:46:11.245Z,102711.16
2022-10-18T23:48:38.225Z,102714.50
2022-10-18T23:51:05.727Z,102711.81
2022-10-18T23:53:32.864Z,102717.72
2022-10-18T23:56:02.351Z,102718.44
2022-10-18T23:58:31.335Z,102710.00
